createdAt,value
2022-09-28T00:02:01.933Z,100.00
2022-09-28T00:04:50.082Z,100.00
2022-09-28T00:07:37.977Z,100.00
2022-09-28T00:10:25.838Z,100.00
2022-09-28T00:13:15.043Z,100.00
2022-09-28T00:16:04.871Z,100.00
2022-09-28T00:18:53.226Z,100.00
2022-09-28T00:21:42.638Z,100.00
2022-09-28T00:24:30.530Z,100.00
2022-09-28T00:27:18.377Z,100.00
2022-09-28T00:30:09.600Z,100.00
2022-09-28T00:32:57.559Z,100.00
2022-09-28T00:35:45.443Z,100.00
2022-09-28T00:38:33.353Z,100.00
2022-09-28T00:41:21.234Z,100.00
2022-09-28T00:44:36.065Z,100.00
2022-09-28T00:47:41.586Z,100.00
2022-09-28T00:50:32.876Z,100.00
2022-09-28T00:53:24.788Z,100.00
2022-09-28T00:56:17.373Z,100.00
2022-09-28T00:59:05.836Z,100.00
2022-09-28T01:01:53.926Z,100.00
2022-09-28T01:04:43.322Z,100.00
2022-09-28T01:07:32.926Z,100.00
2022-09-28T01:10:20.975Z,100.00
2022-09-28T01:13:08.960Z,100.00
2022-09-28T01:16:04.453Z,100.00
2022-09-28T01:19:08.090Z,100.00
2022-09-28T01:22:10.128Z,100.00
2022-09-28T01:25:05.878Z,100.00
2022-09-28T01:27:58.647Z,100.00
2022-09-28T01:30:54.853Z,100.00
2022-09-28T01:33:46.832Z,100.00
2022-09-28T01:36:43.588Z,100.00
2022-09-28T01:39:35.925Z,100.00
2022-09-28T01:42:28.541Z,100.00
2022-09-28T01:45:22.886Z,100.00
2022-09-28T01:48:18.489Z,100.00
2022-09-28T01:51:10.789Z,100.00
2022-09-28T01:54:06.671Z,100.00
2022-09-28T01:56:58.735Z,100.00
2022-09-28T01:59:53.237Z,100.00
2022-09-28T02:02:48.434Z,100.00
2022-09-28T02:05:42.009Z,100.00
2022-09-28T02:08:35.990Z,100.00
2022-09-28T02:11:24.414Z,100.00
2022-09-28T02:14:16.941Z,100.00
2022-09-28T02:17:07.148Z,100.00
2022-09-28T02:19:56.504Z,100.00
2022-09-28T02:22:48.855Z,100.00
2022-09-28T02:25:41.313Z,100.00
2022-09-28T02:28:31.309Z,100.00
2022-09-28T02:31:19.692Z,100.00
2022-09-28T02:34:07.801Z,100.00
2022-09-28T02:36:57.227Z,100.00
2022-09-28T02:39:45.140Z,100.00
2022-09-28T02:42:43.613Z,100.00
2022-09-28T02:45:41.306Z,100.00
2022-09-28T02:49:04.910Z,100.00
2022-09-28T02:52:25.845Z,100.00
2022-09-28T02:55:22.501Z,100.00
2022-09-28T02:58:28.751Z,100.00
2022-09-28T03:01:27.293Z,100.00
2022-09-28T03:04:27.709Z,100.00
2022-09-28T03:07:23.091Z,100.00
2022-09-28T03:10:20.436Z,100.00
2022-09-28T03:13:09.568Z,100.00
2022-09-28T03:16:09.355Z,100.00
2022-09-28T03:18:57.429Z,100.00
2022-09-28T03:21:45.332Z,100.00
2022-09-28T03:24:33.297Z,100.00
2022-09-28T03:27:22.763Z,100.00
2022-09-28T03:30:12.472Z,100.00
2022-09-28T03:33:03.433Z,100.00
2022-09-28T03:35:53.976Z,100.00
2022-09-28T03:38:41.943Z,100.00
2022-09-28T03:41:29.884Z,100.00
2022-09-28T03:44:19.100Z,100.00
2022-09-28T03:47:08.994Z,100.00
2022-09-28T03:49:57.773Z,100.00
2022-09-28T03:52:45.646Z,100.00
2022-09-28T03:55:33.531Z,100.00
2022-09-28T03:58:21.805Z,100.00
2022-09-28T04:01:16.939Z,100.00
2022-09-28T04:04:06.963Z,100.00
2022-09-28T04:06:55.957Z,100.00
2022-09-28T04:09:43.884Z,100.00
2022-09-28T04:12:31.816Z,100.00
2022-09-28T04:15:19.676Z,100.00
2022-09-28T04:18:12.108Z,100.00
2022-09-28T04:21:24.202Z,100.00
2022-09-28T04:24:18.781Z,100.00
2022-09-28T04:27:24.347Z,100.00
2022-09-28T04:30:12.828Z,100.00
2022-09-28T04:33:02.915Z,100.00
2022-09-28T04:35:53.122Z,100.00
2022-09-28T04:38:52.687Z,100.00
2022-09-28T04:41:42.090Z,100.00
2022-09-28T04:44:30.291Z,100.00
2022-09-28T04:47:22.677Z,100.00
2022-09-28T04:50:36.859Z,100.00
2022-09-28T04:53:34.008Z,100.00
2022-09-28T04:56:22.044Z,100.00
2022-09-28T04:59:11.589Z,100.00
2022-09-28T05:02:00.374Z,100.00
2022-09-28T05:05:07.641Z,100.00
2022-09-28T05:08:16.209Z,100.00
2022-09-28T05:11:07.330Z,100.00
2022-09-28T05:13:55.257Z,100.00
2022-09-28T05:16:43.217Z,100.00
2022-09-28T05:19:57.229Z,100.00
2022-09-28T05:22:45.189Z,100.00
2022-09-28T05:25:34.830Z,100.00
2022-09-28T05:28:33.670Z,100.00
2022-09-28T05:31:56.971Z,100.00
2022-09-28T05:34:56.620Z,100.00
2022-09-28T05:37:49.421Z,100.00
2022-09-28T05:40:37.495Z,100.00
2022-09-28T05:43:25.841Z,100.00
2022-09-28T05:46:15.587Z,100.00
2022-09-28T05:49:04.228Z,100.00
2022-09-28T05:51:52.325Z,100.00
2022-09-28T05:54:40.329Z,100.00
2022-09-28T05:57:28.376Z,100.00
2022-09-28T06:00:16.569Z,100.00
2022-09-28T06:03:15.204Z,100.00
2022-09-28T06:06:03.335Z,100.00
2022-09-28T06:08:52.498Z,100.00
2022-09-28T06:11:59.277Z,100.00
2022-09-28T06:15:00.725Z,100.00
2022-09-28T06:17:49.634Z,100.00
2022-09-28T06:21:14.868Z,100.00
2022-09-28T06:24:06.330Z,100.00
2022-09-28T06:26:54.372Z,100.00
2022-09-28T06:29:43.175Z,100.00
2022-09-28T06:32:31.203Z,100.00
2022-09-28T06:35:19.251Z,100.00
2022-09-28T06:38:09.145Z,100.00
2022-09-28T06:40:58.822Z,100.00
2022-09-28T06:43:48.566Z,100.00
2022-09-28T06:46:55.846Z,100.00
2022-09-28T06:49:43.868Z,100.00
2022-09-28T06:52:52.673Z,100.00
2022-09-28T06:56:12.214Z,100.00
2022-09-28T06:59:00.186Z,100.00
2022-09-28T07:01:49.875Z,100.00
2022-09-28T07:04:42.380Z,100.00
2022-09-28T07:07:57.456Z,100.00
2022-09-28T07:11:07.097Z,100.00
2022-09-28T07:14:43.353Z,100.00
2022-09-28T07:17:39.806Z,100.00
2022-09-28T07:20:47.604Z,100.00
2022-09-28T07:23:51.329Z,100.00
2022-09-28T07:26:45.379Z,100.00
2022-09-28T07:29:53.942Z,100.00
2022-09-28T07:32:46.632Z,100.00
2022-09-28T07:35:54.290Z,100.00
2022-09-28T07:38:45.121Z,100.00
2022-09-28T07:41:32.592Z,100.00
2022-09-28T07:44:23.206Z,100.00
2022-09-28T07:47:16.458Z,100.00
2022-09-28T07:50:25.241Z,100.00
2022-09-28T07:53:22.846Z,100.00
2022-09-28T07:56:28.596Z,100.00
2022-09-28T07:59:45.714Z,100.00
2022-09-28T08:03:04.185Z,100.00
2022-09-28T08:05:59.100Z,100.00
2022-09-28T08:08:47.163Z,100.00
2022-09-28T08:11:38.627Z,100.00
2022-09-28T08:14:47.195Z,100.00
2022-09-28T08:17:51.014Z,100.00
2022-09-28T08:21:00.420Z,100.00
2022-09-28T08:23:48.928Z,100.00
2022-09-28T08:26:37.000Z,100.00
2022-09-28T08:29:25.187Z,100.00
2022-09-28T08:32:19.532Z,100.00
2022-09-28T08:35:27.870Z,100.00
2022-09-28T08:38:39.385Z,100.00
2022-09-28T08:42:06.492Z,100.00
2022-09-28T08:45:15.192Z,100.00
2022-09-28T08:48:38.291Z,100.00
2022-09-28T08:51:43.278Z,100.00
2022-09-28T08:54:48.925Z,100.00
2022-09-28T08:57:52.066Z,100.00
2022-09-28T09:00:46.941Z,100.00
2022-09-28T09:03:39.378Z,100.00
2022-09-28T09:07:23.441Z,100.00
2022-09-28T09:10:44.575Z,100.00
2022-09-28T09:14:01.743Z,100.00
2022-09-28T09:17:00.636Z,100.00
2022-09-28T09:20:20.057Z,100.00
2022-09-28T09:23:20.303Z,100.00
2022-09-28T09:26:22.848Z,100.00
2022-09-28T09:29:28.086Z,100.00
2022-09-28T09:32:42.812Z,100.00
2022-09-28T09:36:09.843Z,100.00
2022-09-28T09:39:36.147Z,100.00
2022-09-28T09:42:55.206Z,100.00
2022-09-28T09:46:14.509Z,100.00
2022-09-28T09:49:29.318Z,100.00
2022-09-28T09:52:24.978Z,100.00
2022-09-28T09:55:21.154Z,100.00
2022-09-28T09:58:19.523Z,100.00
2022-09-28T10:01:15.423Z,100.00
2022-09-28T10:04:38.680Z,100.00
2022-09-28T10:07:43.471Z,100.00
2022-09-28T10:10:35.581Z,100.00
2022-09-28T10:13:32.873Z,100.00
2022-09-28T10:16:25.225Z,95.79
2022-09-28T10:19:20.875Z,100.00
2022-09-28T10:22:28.419Z,100.00
2022-09-28T10:25:20.271Z,100.00
2022-09-28T10:28:13.129Z,100.00
2022-09-28T10:31:35.267Z,100.00
2022-09-28T10:34:27.598Z,100.00
2022-09-28T10:37:17.927Z,96.43
2022-09-28T10:40:38.888Z,99.53
2022-09-28T10:43:30.263Z,96.61
2022-09-28T10:46:24.109Z,92.71
2022-09-28T10:49:18.168Z,78.89
2022-09-28T10:52:32.848Z,78.43
2022-09-28T10:55:32.581Z,75.12
2022-09-28T10:58:27.520Z,70.23
2022-09-28T11:01:19.445Z,63.38
2022-09-28T11:04:20.879Z,65.59
2022-09-28T11:07:18.764Z,64.46
2022-09-28T11:10:07.795Z,67.65
2022-09-28T11:12:56.694Z,64.95
2022-09-28T11:15:46.948Z,66.25
2022-09-28T11:18:43.870Z,69.26
2022-09-28T11:21:43.089Z,68.11
2022-09-28T11:24:32.344Z,62.57
2022-09-28T11:27:25.496Z,65.02
2022-09-28T11:30:24.513Z,70.01
2022-09-28T11:33:33.475Z,67.63
2022-09-28T11:37:03.245Z,79.41
2022-09-28T11:40:04.678Z,75.48
2022-09-28T11:46:00.999Z,65.41
2022-09-28T11:48:54.023Z,65.73
2022-09-28T11:51:44.728Z,63.85
2022-09-28T11:54:41.578Z,68.78
2022-09-28T11:57:36.088Z,76.74
2022-09-28T12:00:24.604Z,79.65
2022-09-28T12:03:23.611Z,83.34
2022-09-28T12:06:17.202Z,82.31
2022-09-28T12:09:09.992Z,90.02
2022-09-28T12:12:26.564Z,90.88
2022-09-28T12:15:22.177Z,92.44
2022-09-28T12:18:18.815Z,94.72
2022-09-28T12:21:29.075Z,94.04
2022-09-28T12:24:21.244Z,93.97
2022-09-28T12:27:18.518Z,87.40
2022-09-28T12:30:15.062Z,87.40
2022-09-28T12:33:06.120Z,83.36
2022-09-28T12:36:13.831Z,81.18
2022-09-28T12:39:30.827Z,83.54
2022-09-28T12:42:39.163Z,78.73
2022-09-28T12:46:09.951Z,76.04
2022-09-28T12:50:20.009Z,71.76
2022-09-28T12:52:34.261Z,73.59
2022-09-28T12:55:33.919Z,68.52
2022-09-28T12:58:36.514Z,71.03
2022-09-28T13:01:44.250Z,70.37
2022-09-28T13:04:48.248Z,72.21
2022-09-28T13:07:44.467Z,75.89
2022-09-28T13:10:39.471Z,68.70
2022-09-28T13:13:41.154Z,68.34
2022-09-28T13:16:37.663Z,67.98
2022-09-28T13:19:36.141Z,60.88
2022-09-28T13:22:33.841Z,59.46
2022-09-28T13:25:26.266Z,59.53
2022-09-28T13:28:16.950Z,65.93
2022-09-28T13:31:05.958Z,63.52
2022-09-28T13:33:57.186Z,61.70
2022-09-28T13:36:48.142Z,61.59
2022-09-28T13:39:51.937Z,60.63
2022-09-28T13:43:26.217Z,61.32
2022-09-28T13:46:24.901Z,63.93
2022-09-28T13:49:20.043Z,63.73
2022-09-28T13:52:13.928Z,64.45
2022-09-28T13:55:27.256Z,63.55
2022-09-28T13:58:22.615Z,64.72
2022-09-28T14:01:14.003Z,63.01
2022-09-28T14:04:18.402Z,59.33
2022-09-28T14:07:16.422Z,61.53
2022-09-28T14:10:24.552Z,65.60
2022-09-28T14:13:13.175Z,62.49
2022-09-28T14:16:21.124Z,71.27
2022-09-28T14:19:12.896Z,69.88
2022-09-28T14:22:22.384Z,75.88
2022-09-28T14:25:18.460Z,72.07
2022-09-28T14:28:26.076Z,72.55
2022-09-28T14:31:18.259Z,76.60
2022-09-28T14:34:08.035Z,79.32
2022-09-28T14:37:13.864Z,77.82
2022-09-28T14:40:27.971Z,73.26
2022-09-28T14:43:36.123Z,77.90
2022-09-28T14:46:33.071Z,79.35
2022-09-28T14:49:50.411Z,78.25
2022-09-28T14:52:41.663Z,75.66
2022-09-28T14:55:35.350Z,74.72
2022-09-28T14:58:26.625Z,81.75
2022-09-28T15:01:20.155Z,81.21
2022-09-28T15:04:13.767Z,74.30
2022-09-28T15:07:01.964Z,74.01
2022-09-28T15:09:51.508Z,75.04
2022-09-28T15:12:44.692Z,72.48
2022-09-28T15:15:35.993Z,76.26
2022-09-28T15:19:13.330Z,79.48
2022-09-28T15:22:01.432Z,86.23
2022-09-28T15:25:01.425Z,81.75
2022-09-28T15:27:55.032Z,64.99
2022-09-28T15:30:43.412Z,78.40
2022-09-28T15:33:51.125Z,93.08
2022-09-28T15:36:41.054Z,97.23
2022-09-28T15:39:34.038Z,100.00
2022-09-28T15:42:22.801Z,100.00
2022-09-28T15:45:30.645Z,100.00
2022-09-28T15:48:21.423Z,100.00
2022-09-28T15:51:11.919Z,100.00
2022-09-28T15:54:04.223Z,100.00
2022-09-28T15:56:54.862Z,100.00
2022-09-28T15:59:44.395Z,100.00
2022-09-28T16:02:33.817Z,100.00
2022-09-28T16:05:35.589Z,100.00
2022-09-28T16:08:37.695Z,100.00
2022-09-28T16:11:27.895Z,100.00
2022-09-28T16:14:20.361Z,100.00
2022-09-28T16:17:17.603Z,100.00
2022-09-28T16:20:22.529Z,100.00
2022-09-28T16:23:21.000Z,100.00
2022-09-28T16:26:16.695Z,100.00
2022-09-28T16:29:09.327Z,100.00
2022-09-28T16:31:57.277Z,100.00
2022-09-28T16:34:45.194Z,100.00
2022-09-28T16:37:34.844Z,100.00
2022-09-28T16:40:22.846Z,100.00
2022-09-28T16:43:20.088Z,100.00
2022-09-28T16:46:11.969Z,100.00
2022-09-28T16:49:02.938Z,100.00
2022-09-28T16:51:50.984Z,100.00
2022-09-28T16:54:58.065Z,100.00
2022-09-28T16:57:49.853Z,100.00
2022-09-28T17:00:37.775Z,100.00
2022-09-28T17:03:25.922Z,100.00
2022-09-28T17:06:15.300Z,100.00
2022-09-28T17:09:06.784Z,100.00
2022-09-28T17:11:56.926Z,100.00
2022-09-28T17:14:45.615Z,100.00
2022-09-28T17:17:33.609Z,100.00
2022-09-28T17:20:24.959Z,100.00
2022-09-28T17:23:13.001Z,100.00
2022-09-28T17:26:03.132Z,100.00
2022-09-28T17:28:53.006Z,100.00
2022-09-28T17:31:41.363Z,100.00
2022-09-28T17:34:29.359Z,100.00
2022-09-28T17:37:17.454Z,100.00
2022-09-28T17:40:16.186Z,100.00
2022-09-28T17:43:05.676Z,100.00
2022-09-28T17:45:55.180Z,100.00
2022-09-28T17:48:45.995Z,100.00
2022-09-28T17:51:37.463Z,100.00
2022-09-28T17:54:26.020Z,100.00
2022-09-28T17:57:14.244Z,100.00
2022-09-28T18:00:02.841Z,100.00
2022-09-28T18:02:54.328Z,100.00
2022-09-28T18:05:43.344Z,100.00
2022-09-28T18:08:32.101Z,100.00
2022-09-28T18:11:20.040Z,100.00
2022-09-28T18:14:11.217Z,100.00
2022-09-28T18:16:59.575Z,100.00
2022-09-28T18:19:48.900Z,100.00
2022-09-28T18:22:37.163Z,100.00
2022-09-28T18:25:25.140Z,100.00
2022-09-28T18:28:14.042Z,100.00
2022-09-28T18:31:08.652Z,100.00
2022-09-28T18:34:00.314Z,100.00
2022-09-28T18:36:49.639Z,100.00
2022-09-28T18:39:39.105Z,100.00
2022-09-28T18:42:27.049Z,100.00
2022-09-28T18:45:17.189Z,100.00
2022-09-28T18:48:05.136Z,100.00
2022-09-28T18:50:52.987Z,100.00
2022-09-28T18:53:42.309Z,100.00
2022-09-28T18:56:30.325Z,100.00
2022-09-28T18:59:18.432Z,100.00
2022-09-28T19:02:06.563Z,100.00
2022-09-28T19:04:54.747Z,100.00
2022-09-28T19:07:42.720Z,100.00
2022-09-28T19:10:32.073Z,100.00
2022-09-28T19:13:20.069Z,100.00
2022-09-28T19:16:09.558Z,100.00
2022-09-28T19:18:58.647Z,100.00
2022-09-28T19:21:47.258Z,100.00
2022-09-28T19:24:35.754Z,100.00
2022-09-28T19:27:25.078Z,100.00
2022-09-28T19:30:14.015Z,100.00
2022-09-28T19:33:01.976Z,100.00
2022-09-28T19:35:56.762Z,100.00
2022-09-28T19:38:44.890Z,100.00
2022-09-28T19:41:45.664Z,100.00
2022-09-28T19:44:35.778Z,100.00
2022-09-28T19:47:23.806Z,100.00
2022-09-28T19:50:11.843Z,100.00
2022-09-28T19:53:01.674Z,100.00
2022-09-28T19:55:52.727Z,100.00
2022-09-28T19:58:40.712Z,100.00
2022-09-28T20:01:31.310Z,100.00
2022-09-28T20:04:20.960Z,100.00
2022-09-28T20:07:08.989Z,100.00
2022-09-28T20:09:56.825Z,100.00
2022-09-28T20:12:45.034Z,100.00
2022-09-28T20:15:36.212Z,100.00
2022-09-28T20:18:27.412Z,100.00
2022-09-28T20:21:18.140Z,100.00
2022-09-28T20:24:06.617Z,100.00
2022-09-28T20:26:54.576Z,100.00
2022-09-28T20:29:43.005Z,100.00
2022-09-28T20:32:32.143Z,100.00
2022-09-28T20:35:32.130Z,100.00
2022-09-28T20:38:20.928Z,100.00
2022-09-28T20:41:10.597Z,100.00
2022-09-28T20:44:04.145Z,100.00
2022-09-28T20:46:53.322Z,100.00
2022-09-28T20:49:41.441Z,100.00
2022-09-28T20:52:30.689Z,100.00
2022-09-28T20:55:18.612Z,100.00
2022-09-28T20:58:06.488Z,100.00
2022-09-28T21:01:02.337Z,100.00
2022-09-28T21:03:52.007Z,100.00
2022-09-28T21:06:41.858Z,100.00
2022-09-28T21:09:32.057Z,100.00
2022-09-28T21:12:20.093Z,100.00
2022-09-28T21:15:08.585Z,100.00
2022-09-28T21:17:56.508Z,100.00
2022-09-28T21:20:48.029Z,100.00
2022-09-28T21:23:36.806Z,100.00
2022-09-28T21:26:28.073Z,100.00
2022-09-28T21:29:16.580Z,100.00
2022-09-28T21:32:04.451Z,100.00
2022-09-28T21:34:52.507Z,100.00
2022-09-28T21:37:40.518Z,100.00
2022-09-28T21:40:28.612Z,100.00
2022-09-28T21:43:17.859Z,100.00
2022-09-28T21:46:06.117Z,100.00
2022-09-28T21:48:54.497Z,100.00
2022-09-28T21:51:42.419Z,100.00
2022-09-28T21:54:30.349Z,100.00
2022-09-28T21:57:18.832Z,100.00
2022-09-28T22:00:09.910Z,100.00
2022-09-28T22:02:57.795Z,100.00
2022-09-28T22:05:45.802Z,100.00
2022-09-28T22:08:34.127Z,100.00
2022-09-28T22:11:23.700Z,100.00
2022-09-28T22:14:12.083Z,100.00
2022-09-28T22:17:01.374Z,100.00
2022-09-28T22:19:49.250Z,100.00
2022-09-28T22:22:37.103Z,100.00
2022-09-28T22:25:24.980Z,100.00
2022-09-28T22:28:12.883Z,100.00
2022-09-28T22:31:00.973Z,100.00
2022-09-28T22:33:50.684Z,100.00
2022-09-28T22:36:38.670Z,100.00
2022-09-28T22:39:26.886Z,100.00
2022-09-28T22:42:16.264Z,100.00
2022-09-28T22:45:04.505Z,100.00
2022-09-28T22:47:52.412Z,100.00
2022-09-28T22:50:49.197Z,100.00
2022-09-28T22:53:37.061Z,100.00
2022-09-28T22:56:25.557Z,100.00
2022-09-28T22:59:13.430Z,100.00
2022-09-28T23:02:02.014Z,100.00
2022-09-28T23:04:49.974Z,100.00
2022-09-28T23:07:39.390Z,100.00
2022-09-28T23:10:27.375Z,100.00
2022-09-28T23:13:15.590Z,100.00
2022-09-28T23:16:06.390Z,100.00
2022-09-28T23:18:56.054Z,100.00
2022-09-28T23:21:43.911Z,100.00
2022-09-28T23:24:33.087Z,100.00
2022-09-28T23:27:21.000Z,100.00
2022-09-28T23:30:10.280Z,100.00
2022-09-28T23:32:58.143Z,100.00
2022-09-28T23:35:46.032Z,100.00
2022-09-28T23:38:34.028Z,100.00
2022-09-28T23:41:23.228Z,100.00
2022-09-28T23:44:11.205Z,100.00
2022-09-28T23:46:59.142Z,100.00
2022-09-28T23:49:47.019Z,100.00
2022-09-28T23:52:35.300Z,100.00
2022-09-28T23:55:23.227Z,100.00
2022-09-28T23:58:12.817Z,100.00
